Terminal Aerodrome Forecast
Issued by NWS

Home | Current Version | Previous Version | Text Only | Print | Product List | Glossary On
Versions: 1 2 3 4 5 6 7 8 9 10 11 12 13 14
137
FTUS46 KSTO 262330
TAFRBL
TAF
KRBL 262330Z 2700/2724 17010G15KT P6SM VCSH SCT050 OVC100
     FM270400 30006KT P6SM VCSH SCT080 BKN150
     FM272100 17008KT P6SM VCSH BKN040=

USA.gov is the U.S. government's official web portal to all federal, state and local government web resources and services.